createdAt,value
2019-05-12T00:04:08.661Z,7.08
2019-05-12T00:09:08.784Z,7.14
2019-05-12T00:14:09.053Z,7.11
2019-05-12T00:18:09.467Z,7.08
2019-05-12T00:24:08.397Z,7.01
2019-05-12T00:29:08.133Z,7.13
2019-05-12T00:34:08.198Z,7.04
2019-05-12T00:39:09.120Z,7.1
2019-05-12T00:44:09.160Z,7.07
2019-05-12T00:49:08.503Z,7.03
2019-05-12T00:54:09.476Z,7.02
2019-05-12T00:58:08.928Z,6.99
2019-05-12T01:03:10.233Z,6.97
2019-05-12T01:08:09.964Z,7.02
2019-05-12T01:13:09.357Z,7.12
2019-05-12T01:18:08.887Z,7.2
2019-05-12T01:23:09.262Z,7.23
2019-05-12T01:28:08.586Z,7.19
2019-05-12T01:33:09.254Z,7.16
2019-05-12T01:38:08.552Z,7.16
2019-05-12T01:42:08.918Z,7.2
2019-05-12T01:47:08.756Z,7.15
2019-05-12T01:52:09.063Z,7.17
2019-05-12T01:57:08.569Z,7.16
2019-05-12T02:02:09.046Z,7.19
2019-05-12T02:07:08.602Z,7.19
2019-05-12T02:12:08.559Z,7.15
2019-05-12T02:17:09.195Z,7.14
2019-05-12T02:21:08.720Z,7.11
2019-05-12T02:26:08.680Z,7.09
2019-05-12T02:31:09.802Z,7.1
2019-05-12T02:36:07.042Z,7.07
2019-05-12T02:41:06.569Z,7.05
2019-05-12T02:46:06.949Z,6.97
2019-05-12T02:51:07.150Z,6.97
2019-05-12T02:56:06.433Z,6.93
2019-05-12T03:00:08.538Z,6.91
2019-05-12T03:05:06.636Z,6.85
2019-05-12T03:10:06.282Z,6.87
2019-05-12T03:15:07.727Z,6.88
2019-05-12T03:20:07.034Z,6.81
2019-05-12T03:25:24.447Z,6.84
2019-05-12T03:30:18.783Z,6.84
2019-05-12T03:34:11.619Z,6.88
2019-05-12T03:40:06.619Z,6.91
2019-05-12T03:44:06.959Z,7.01
2019-05-12T03:49:06.486Z,7
2019-05-12T03:54:06.598Z,7.12
2019-05-12T03:59:07.582Z,7.14
2019-05-12T04:04:06.463Z,7.22
2019-05-12T04:09:07.305Z,7.25
2019-05-12T04:14:06.713Z,7.24
2019-05-12T04:18:07.501Z,7.27
2019-05-12T04:23:07.509Z,7.29
2019-05-12T04:28:06.353Z,7.35
2019-05-12T04:33:06.866Z,7.4
2019-05-12T04:38:07.041Z,7.47
2019-05-12T04:43:07.316Z,7.48
2019-05-12T04:48:06.868Z,7.59
2019-05-12T04:52:07.512Z,7.64
2019-05-12T04:53:07.360Z,7.64
2019-05-12T04:57:06.784Z,7.76
2019-05-12T05:02:06.715Z,7.84
2019-05-12T05:07:07.037Z,7.88
2019-05-12T05:12:06.881Z,8.06
2019-05-12T05:17:06.975Z,8.22
2019-05-12T05:22:06.292Z,8.28
2019-05-12T05:27:06.492Z,8.39
2019-05-12T05:31:07.072Z,8.51
2019-05-12T05:36:14.901Z,8.58
2019-05-12T05:41:11.332Z,8.37
2019-05-12T05:46:08.470Z,8.21
2019-05-12T05:51:09.458Z,8.08
2019-05-12T05:56:06.814Z,7.98
2019-05-12T06:00:22.967Z,8.08
2019-05-12T06:01:08.747Z,8.08
2019-05-12T06:05:06.831Z,8.04
2019-05-12T06:10:07.304Z,8.03
2019-05-12T06:15:09.421Z,8.06
2019-05-12T06:20:06.701Z,8.2
2019-05-12T06:25:06.956Z,8.18
2019-05-12T06:30:08.439Z,8.45
2019-05-12T06:34:20.935Z,8.48
2019-05-12T06:35:06.474Z,8.48
2019-05-12T06:40:06.908Z,8.67
2019-05-12T06:44:14.714Z,8.74
2019-05-12T06:49:17.400Z,9.03
2019-05-12T06:54:14.837Z,9.7
2019-05-12T06:59:14.627Z,9.86
2019-05-12T07:04:10.366Z,9.93
2019-05-12T07:08:07.194Z,9.77
2019-05-12T07:13:07.119Z,9.9
2019-05-12T07:18:06.362Z,9.96
2019-05-12T07:23:06.651Z,9.84
2019-05-12T07:28:08.492Z,10.49
2019-05-12T07:33:07.003Z,10.78
2019-05-12T07:38:06.285Z,10.35
2019-05-12T07:42:07.788Z,10.67
2019-05-12T07:47:06.714Z,10.46
2019-05-12T07:52:07.101Z,10.48
2019-05-12T07:57:17.103Z,11.12
2019-05-12T08:02:07.030Z,11.64
2019-05-12T08:07:06.523Z,12.49
2019-05-12T08:12:15.259Z,12.52
2019-05-12T08:17:16.772Z,12.7
2019-05-12T08:21:06.970Z,12.6
2019-05-12T08:26:18.237Z,12.64
2019-05-12T08:31:06.687Z,11.92
2019-05-12T08:36:13.901Z,11.46
2019-05-12T08:41:06.878Z,11.02
2019-05-12T08:45:23.728Z,11.52
2019-05-12T08:46:15.424Z,11.52
2019-05-12T08:50:07.134Z,11.69
2019-05-12T08:55:06.510Z,12.23
2019-05-12T09:00:09.238Z,12.8
2019-05-12T09:05:06.380Z,12.71
2019-05-12T09:10:07.094Z,13.46
2019-05-12T09:15:08.824Z,13.68
2019-05-12T09:19:16.125Z,13.43
2019-05-12T09:20:08.810Z,13.43
2019-05-12T09:24:06.238Z,12.8
2019-05-12T09:29:07.907Z,12.97
2019-05-12T09:34:15.871Z,13.4
2019-05-12T09:39:07.153Z,13.43
2019-05-12T09:44:06.383Z,13.52
2019-05-12T09:49:06.405Z,13.65
2019-05-12T09:53:12.205Z,14.1
2019-05-12T09:58:06.608Z,13.31
2019-05-12T10:03:09.056Z,14.08
2019-05-12T10:08:06.281Z,13.95
2019-05-12T10:13:06.980Z,14.62
2019-05-12T10:18:11.516Z,14.39
2019-05-12T10:22:06.875Z,14.42
2019-05-12T10:27:07.169Z,14.86
2019-05-12T10:32:06.447Z,14.48
2019-05-12T10:37:06.919Z,14.44
2019-05-12T10:42:06.626Z,14.56
2019-05-12T10:47:06.540Z,15.15
2019-05-12T10:51:06.998Z,14.92
2019-05-12T10:56:07.234Z,14.88
2019-05-12T11:01:09.014Z,15.3
2019-05-12T11:06:08.167Z,15.1
2019-05-12T11:11:06.714Z,15.43
2019-05-12T11:16:06.767Z,15.07
2019-05-12T11:21:07.104Z,15.82
2019-05-12T11:26:06.474Z,15.45
2019-05-12T11:30:08.623Z,15.82
2019-05-12T11:35:06.802Z,15.92
2019-05-12T11:40:06.460Z,15.45
2019-05-12T11:45:08.040Z,16.32
2019-05-12T11:50:10.342Z,15.97
2019-05-12T11:54:10.787Z,15.76
2019-05-12T11:59:06.449Z,15.93
2019-05-12T12:04:07.111Z,16.4
2019-05-12T12:09:15.137Z,15.73
2019-05-12T12:14:10.926Z,15.81
2019-05-12T12:19:07.161Z,15.77
2019-05-12T12:24:06.407Z,16.18
2019-05-12T12:29:06.769Z,16.18
2019-05-12T12:33:07.148Z,16.45
2019-05-12T12:38:06.555Z,16.61
2019-05-12T12:43:06.989Z,15.32
2019-05-12T12:48:07.059Z,16.44
2019-05-12T12:53:06.893Z,16.37
2019-05-12T12:57:10.426Z,16.49
2019-05-12T12:58:07.046Z,16.49
2019-05-12T13:02:09.530Z,16.48
2019-05-12T13:07:06.783Z,16.98
2019-05-12T13:17:06.392Z,16.63
2019-05-12T13:22:14.164Z,16.77
2019-05-12T13:27:06.975Z,17.01
2019-05-12T13:31:16.782Z,17.09
2019-05-12T13:36:06.358Z,17.23
2019-05-12T13:41:15.718Z,17.5
2019-05-12T13:46:06.605Z,17.56
2019-05-12T13:51:15.690Z,17.64
2019-05-12T13:56:06.957Z,17.14
2019-05-12T14:01:20.756Z,17.66
2019-05-12T14:05:14.853Z,17.55
2019-05-12T14:10:07.442Z,16.91
2019-05-12T14:15:08.390Z,16.31
2019-05-12T14:20:15.569Z,17.14
2019-05-12T14:25:07.768Z,17.43
2019-05-12T14:30:14.290Z,17.32
2019-05-12T14:35:07.417Z,15.26
2019-05-12T14:39:10.638Z,14.82
2019-05-12T14:44:07.231Z,17.31
2019-05-12T14:49:07.169Z,17.52
2019-05-12T14:54:06.388Z,17.63
2019-05-12T14:59:06.645Z,17.97
2019-05-12T15:04:07.791Z,17.26
2019-05-12T15:09:19.480Z,17.49
2019-05-12T15:14:07.080Z,17.52
2019-05-12T15:18:13.052Z,15.42
2019-05-12T15:23:08.830Z,14.93
2019-05-12T15:28:07.051Z,14.84
2019-05-12T15:33:06.928Z,14.62
2019-05-12T15:38:14.556Z,14.65
2019-05-12T15:43:09.670Z,14.66
2019-05-12T15:47:07.500Z,15.41
2019-05-12T15:48:06.442Z,15.41
2019-05-12T15:53:06.809Z,16.56
2019-05-12T15:57:06.408Z,14.95
2019-05-12T16:02:16.939Z,16.16
2019-05-12T16:07:06.419Z,16.62
2019-05-12T16:12:23.525Z,16.5
2019-05-12T16:17:07.576Z,17.51
2019-05-12T16:22:06.910Z,17.4
2019-05-12T16:27:07.774Z,17.3
2019-05-12T16:31:09.422Z,17.88
2019-05-12T16:36:14.262Z,17.03
2019-05-12T16:41:07.393Z,17.34
2019-05-12T16:46:06.813Z,16.88
2019-05-12T16:51:07.020Z,17.33
2019-05-12T16:55:06.555Z,17.14
2019-05-12T16:56:06.498Z,17.14
2019-05-12T17:00:09.167Z,15.17
2019-05-12T17:10:16.133Z,15.32
2019-05-12T17:15:08.414Z,16.41
2019-05-12T17:20:06.800Z,16.81
2019-05-12T17:25:11.486Z,16.61
2019-05-12T17:29:07.483Z,14.94
2019-05-12T17:34:10.553Z,14.38
2019-05-12T17:39:07.200Z,14.78
2019-05-12T17:44:06.435Z,15.68
2019-05-12T17:49:06.652Z,15.97
2019-05-12T17:54:07.177Z,16.05
2019-05-12T17:58:07.556Z,15.16
2019-05-12T18:03:24.638Z,14.51
2019-05-12T18:08:06.797Z,13.81
2019-05-12T18:13:06.361Z,14.01
2019-05-12T18:18:06.442Z,14.24
2019-05-12T18:23:06.646Z,13.83
2019-05-12T18:28:06.760Z,13.41
2019-05-12T18:32:08.929Z,12.81
2019-05-12T18:37:07.243Z,12.34
2019-05-12T18:42:06.861Z,11.92
2019-05-12T18:47:06.981Z,11.7
2019-05-12T18:52:07.144Z,11.42
2019-05-12T18:57:07.842Z,11.18
2019-05-12T19:02:06.798Z,11.18
2019-05-12T19:06:07.309Z,11.05
2019-05-12T19:07:06.965Z,11.05
2019-05-12T19:11:22.908Z,10.81
2019-05-12T19:16:14.192Z,10.44
2019-05-12T19:21:16.479Z,10.25
2019-05-12T19:26:07.084Z,9.9
2019-05-12T19:31:10.522Z,9.57
2019-05-12T19:36:08.483Z,9.47
2019-05-12T19:41:07.624Z,9.49
2019-05-12T19:45:21.562Z,9.46
2019-05-12T19:50:15.542Z,9.85
2019-05-12T19:55:06.663Z,10.01
2019-05-12T20:00:09.135Z,10.04
2019-05-12T20:05:06.336Z,9.94
2019-05-12T20:10:07.036Z,9.92
2019-05-12T20:15:08.918Z,9.75
2019-05-12T20:19:06.434Z,9.68
2019-05-12T20:20:06.434Z,9.68
2019-05-12T20:24:06.860Z,9.55
2019-05-12T20:29:07.087Z,9.39
2019-05-12T20:34:11.679Z,9.25
2019-05-12T20:39:16.636Z,9.02
2019-05-12T20:49:14.721Z,8.67
2019-05-12T20:54:17.978Z,8.7
2019-05-12T20:59:06.707Z,8.72
2019-05-12T21:03:06.307Z,8.59
2019-05-12T21:08:14.528Z,8.43
2019-05-12T21:13:06.794Z,8.33
2019-05-12T21:18:07.855Z,8.27
2019-05-12T21:23:07.038Z,8.14
2019-05-12T21:28:08.331Z,8.09
2019-05-12T21:33:06.378Z,8.18
2019-05-12T21:37:07.159Z,8.15
2019-05-12T21:42:06.798Z,8.15
2019-05-12T21:47:10.949Z,8.15
2019-05-12T21:52:07.065Z,8.12
2019-05-12T21:57:07.173Z,8.07
2019-05-12T22:02:06.755Z,7.97
2019-05-12T22:07:07.480Z,7.83
2019-05-12T22:11:12.188Z,7.74
2019-05-12T22:16:07.371Z,7.61
2019-05-12T22:21:07.763Z,7.5
2019-05-12T22:26:06.808Z,7.38
2019-05-12T22:31:06.881Z,7.19
2019-05-12T22:36:29.895Z,7
2019-05-12T22:41:06.646Z,6.87
2019-05-12T22:46:06.650Z,6.61
2019-05-12T22:50:07.133Z,6.38
2019-05-12T22:55:06.240Z,6.05
2019-05-12T23:00:19.153Z,5.93
2019-05-12T23:05:20.440Z,5.82
2019-05-12T23:10:14.446Z,5.61
2019-05-12T23:15:08.368Z,5.12
2019-05-12T23:20:07.547Z,5.09
2019-05-12T23:24:06.969Z,5.24
2019-05-12T23:30:15.963Z,5.48
2019-05-12T23:34:14.462Z,5.71
2019-05-12T23:39:07.220Z,5.86
2019-05-12T23:44:06.362Z,5.93
2019-05-12T23:49:06.480Z,5.86
2019-05-12T23:54:06.739Z,5.63
2019-05-12T23:59:06.896Z,5.55
